Time;durP1;ratioP1;P1;durP2;ratioP2;P2;SDS_P1;SDS_P2;PMS_P1;PMS_P2;Temp;Humidity;BMP_temperature;BMP_pressure;BME280_temperature;BME280_humidity;BME280_pressure;Samples;Min_cycle;Max_cycle;Signal;HPM_P1;HPM_P2
2022/10/12 00:00:22;;;;;;;19.20;13.78;;;23.90;94.70;;;;;;1836383;76;21895;-86
2022/10/12 00:02:53;;;;;;;20.08;11.88;;;23.90;94.60;;;;;;1855970;76;21552;-86
2022/10/12 00:05:24;;;;;;;20.97;14.50;;;23.90;94.50;;;;;;1855815;75;21539;-86
2022/10/12 00:07:55;;;;;;;19.05;13.55;;;23.90;94.50;;;;;;1851535;76;21137;-85
2022/10/12 00:10:26;;;;;;;33.50;21.00;;;24.00;94.40;;;;;;1870882;75;21190;-85
2022/10/12 00:12:57;;;;;;;33.00;22.48;;;24.10;94.30;;;;;;1854845;76;21173;-85
2022/10/12 00:15:27;;;;;;;21.20;13.25;;;24.10;94.40;;;;;;1855415;76;21447;-85
2022/10/12 00:17:58;;;;;;;20.05;10.95;;;24.20;93.90;;;;;;1840659;76;21672;-85
2022/10/12 00:20:28;;;;;;;22.27;15.43;;;24.20;93.80;;;;;;1866756;76;21117;-85
2022/10/12 00:22:59;;;;;;;18.87;10.00;;;24.20;93.70;;;;;;1853490;76;21183;-85
2022/10/12 00:25:30;;;;;;;18.67;11.95;;;24.30;93.50;;;;;;1856859;75;21204;-85
2022/10/12 00:28:01;;;;;;;16.77;11.68;;;24.30;93.50;;;;;;1854109;75;21526;-85
2022/10/12 00:30:31;;;;;;;16.60;10.82;;;24.40;93.50;;;;;;1853687;76;21157;-84
2022/10/12 00:33:02;;;;;;;15.08;11.03;;;24.40;94.00;;;;;;1854607;76;21137;-84
2022/10/12 00:35:33;;;;;;;21.42;13.00;;;24.40;93.50;;;;;;1858394;76;21110;-83
2022/10/12 00:38:03;;;;;;;21.17;13.93;;;24.40;93.40;;;;;;1870630;76;21171;-83
2022/10/12 00:40:34;;;;;;;16.05;11.03;;;24.40;93.40;;;;;;1878147;76;21154;-83
2022/10/12 00:43:05;;;;;;;16.52;10.63;;;24.40;93.30;;;;;;1863581;75;21179;-84
2022/10/12 00:45:35;;;;;;;13.58;9.70;;;24.40;93.30;;;;;;1848643;76;21180;-84
2022/10/12 00:48:08;;;;;;;16.35;11.70;;;24.50;93.30;;;;;;1849947;75;21165;-84
2022/10/12 00:50:38;;;;;;;16.25;11.63;;;24.60;93.20;;;;;;1861316;75;21176;-84
2022/10/12 00:53:10;;;;;;;13.98;10.68;;;24.60;93.20;;;;;;1865351;76;21129;-83
2022/10/12 00:55:43;;;;;;;15.00;10.65;;;24.60;93.10;;;;;;1812173;77;21170;-83
2022/10/12 00:58:14;;;;;;;14.38;11.12;;;24.70;93.20;;;;;;1849234;76;21141;-85
2022/10/12 01:00:46;;;;;;;15.78;10.63;;;24.70;93.30;;;;;;1849757;76;21105;-77
2022/10/12 01:03:24;;;;;;;16.65;11.15;;;24.70;93.30;;;;;;1859838;76;21661;-75
2022/10/12 01:05:53;;;;;;;23.17;11.83;;;24.70;93.20;;;;;;1852676;76;21656;-74
2022/10/12 01:08:24;;;;;;;18.35;11.53;;;24.80;93.10;;;;;;1851241;76;21932;-75
2022/10/12 01:10:55;;;;;;;46.00;13.00;;;24.80;92.90;;;;;;1843161;77;21690;-74
2022/10/12 01:13:27;;;;;;;35.60;13.48;;;24.90;92.80;;;;;;1856414;77;21140;-73
2022/10/12 01:16:00;;;;;;;19.12;12.47;;;24.90;92.80;;;;;;1851537;76;21184;-75
2022/10/12 01:18:33;;;;;;;19.92;12.88;;;25.00;92.80;;;;;;1852253;76;21134;-73
2022/10/12 01:21:06;;;;;;;20.48;12.05;;;25.10;92.60;;;;;;1854460;76;21196;-73
2022/10/12 01:23:40;;;;;;;12.65;9.95;;;25.10;92.50;;;;;;1862362;76;21676;-73
2022/10/12 01:26:13;;;;;;;14.30;10.43;;;25.20;92.40;;;;;;1857733;76;21886;-73
2022/10/12 01:28:45;;;;;;;14.18;10.63;;;25.20;92.20;;;;;;1853519;76;21078;-74
2022/10/12 01:31:18;;;;;;;14.55;10.70;;;25.30;92.00;;;;;;1853145;76;21790;-74
2022/10/12 01:33:51;;;;;;;14.85;10.88;;;25.30;91.90;;;;;;1856062;76;21121;-74
2022/10/12 01:36:24;;;;;;;13.83;10.38;;;25.30;91.90;;;;;;1861108;76;21532;-74
2022/10/12 01:38:57;;;;;;;17.87;10.35;;;25.40;91.70;;;;;;1866205;76;21117;-73
2022/10/12 01:41:31;;;;;;;17.52;9.90;;;25.40;91.80;;;;;;1792750;78;22014;-73
2022/10/12 01:44:02;;;;;;;13.30;9.55;;;25.50;91.60;;;;;;1850666;76;21208;-73
2022/10/12 01:46:32;;;;;;;16.37;9.43;;;25.50;91.60;;;;;;1843991;76;21206;-72
2022/10/12 01:49:03;;;;;;;12.98;8.55;;;25.50;91.20;;;;;;1823182;77;21518;-72
2022/10/12 01:51:36;;;;;;;12.88;9.28;;;25.60;90.60;;;;;;1853628;77;21250;-73
2022/10/12 01:54:09;;;;;;;14.45;9.70;;;25.60;90.90;;;;;;1860433;76;21887;-73
2022/10/12 01:56:44;;;;;;;17.20;10.03;;;25.70;90.80;;;;;;1870395;76;21138;-73
2022/10/12 01:59:17;;;;;;;13.95;9.43;;;25.70;90.90;;;;;;1846545;76;21421;-72
2022/10/12 02:01:50;;;;;;;13.30;8.93;;;25.80;90.90;;;;;;1850297;75;21621;-75
2022/10/12 02:04:21;;;;;;;14.58;9.20;;;25.80;90.60;;;;;;1853449;76;21145;-73
2022/10/12 02:06:55;;;;;;;12.53;8.88;;;25.90;90.50;;;;;;1851936;76;22075;-73
2022/10/12 02:09:28;;;;;;;15.28;8.83;;;26.00;90.40;;;;;;1860172;76;21174;-73
2022/10/12 02:12:01;;;;;;;12.93;9.58;;;26.10;90.30;;;;;;1863684;76;21708;-73
2022/10/12 02:14:34;;;;;;;16.12;9.25;;;26.10;90.50;;;;;;1805013;77;21625;-74
2022/10/12 02:17:07;;;;;;;13.22;9.05;;;26.20;90.30;;;;;;1785355;80;21132;-77
2022/10/12 02:19:40;;;;;;;11.78;8.90;;;26.30;90.00;;;;;;1852246;77;21191;-73
2022/10/12 02:22:13;;;;;;;12.68;8.95;;;26.40;89.40;;;;;;1881361;76;21546;-74
2022/10/12 02:24:46;;;;;;;16.65;10.25;;;26.40;89.40;;;;;;1863412;76;21145;-73
2022/10/12 02:27:20;;;;;;;13.93;9.35;;;26.50;89.40;;;;;;1873117;76;21579;-73
2022/10/12 02:29:51;;;;;;;12.30;9.48;;;26.60;89.70;;;;;;1857144;76;21148;-74
2022/10/12 02:32:25;;;;;;;12.43;9.23;;;26.60;89.80;;;;;;1853676;76;21678;-74
2022/10/12 02:34:58;;;;;;;12.23;8.20;;;26.70;90.00;;;;;;1862580;75;22226;-75
2022/10/12 02:37:30;;;;;;;14.73;8.48;;;26.80;88.50;;;;;;1862974;76;21089;-74
2022/10/12 02:40:03;;;;;;;12.13;7.90;;;26.90;87.60;;;;;;1850044;75;21838;-72
2022/10/12 02:42:37;;;;;;;12.37;7.72;;;27.00;86.10;;;;;;1854382;77;21613;-72
2022/10/12 02:45:11;;;;;;;15.18;7.97;;;27.10;85.50;;;;;;1867854;76;21197;-74
2022/10/12 02:47:44;;;;;;;12.55;7.75;;;27.20;86.20;;;;;;1847038;77;21143;-72
2022/10/12 02:50:17;;;;;;;10.68;7.70;;;27.30;85.70;;;;;;1819831;77;21192;-73
2022/10/12 02:52:49;;;;;;;10.48;8.05;;;27.40;84.70;;;;;;1838470;76;21667;-72
2022/10/12 02:55:20;;;;;;;11.97;8.43;;;27.50;84.70;;;;;;1884838;73;21147;-73
2022/10/12 02:57:51;;;;;;;14.47;8.55;;;27.60;85.30;;;;;;1911855;73;21539;-74
2022/10/12 03:00:22;;;;;;;14.93;8.10;;;27.70;84.80;;;;;;1923449;74;21620;-74
2022/10/12 03:02:53;;;;;;;20.95;8.95;;;27.70;84.10;;;;;;1905755;74;21238;-73
2022/10/12 03:05:24;;;;;;;12.78;8.03;;;27.80;84.30;;;;;;1895283;74;21168;-72
2022/10/12 03:07:54;;;;;;;12.20;8.48;;;27.90;84.40;;;;;;1921543;73;21159;-71
2022/10/12 03:10:25;;;;;;;11.28;8.55;;;27.90;85.00;;;;;;1896711;74;21159;-72
2022/10/12 03:12:56;;;;;;;13.80;8.20;;;28.00;85.00;;;;;;1923392;73;21859;-72
2022/10/12 03:15:27;;;;;;;12.20;8.08;;;28.10;85.40;;;;;;1895943;74;21141;-72
2022/10/12 03:17:58;;;;;;;13.85;8.68;;;28.20;85.10;;;;;;1900817;74;21123;-72
2022/10/12 03:20:29;;;;;;;14.75;8.83;;;28.30;84.80;;;;;;1895240;74;21162;-72
2022/10/12 03:22:59;;;;;;;13.88;8.30;;;28.40;84.50;;;;;;1893534;74;21120;-72
2022/10/12 03:25:30;;;;;;;14.50;8.90;;;28.40;84.30;;;;;;1887892;74;21140;-73
2022/10/12 03:28:01;;;;;;;15.30;7.97;;;28.50;84.10;;;;;;1897936;74;21230;-72
2022/10/12 03:30:32;;;;;;;12.40;8.60;;;28.60;83.70;;;;;;1893913;74;21148;-73
2022/10/12 03:33:03;;;;;;;13.95;8.95;;;28.60;83.30;;;;;;1893720;74;21607;-74
2022/10/12 03:35:34;;;;;;;11.55;8.20;;;28.70;84.30;;;;;;1893412;74;21140;-72
2022/10/12 03:38:10;;;;;;;14.73;8.38;;;28.80;83.40;;;;;;1888020;74;21133;-72
2022/10/12 03:40:38;;;;;;;17.27;8.83;;;28.90;82.30;;;;;;1893257;76;21212;-73
2022/10/12 03:43:09;;;;;;;12.90;8.03;;;28.90;82.60;;;;;;1897004;74;21181;-75
2022/10/12 03:45:41;;;;;;;11.90;8.70;;;28.90;84.10;;;;;;1888297;76;21092;-72
2022/10/12 03:48:11;;;;;;;15.20;8.03;;;29.10;82.70;;;;;;1893704;76;21055;-73
2022/10/12 03:50:42;;;;;;;14.87;8.78;;;29.20;82.10;;;;;;1894644;74;21536;-73
2022/10/12 03:53:13;;;;;;;12.10;7.78;;;29.30;80.90;;;;;;1900526;74;21660;-74
2022/10/12 03:55:43;;;;;;;13.95;8.48;;;29.40;81.80;;;;;;1925876;74;21150;-73
2022/10/12 03:58:24;;;;;;;13.13;8.38;;;29.40;81.60;;;;;;1870201;74;21169;-74
2022/10/12 04:00:55;;;;;;;13.03;8.25;;;29.50;80.80;;;;;;1866699;76;21118;-73
2022/10/12 04:03:26;;;;;;;13.50;7.92;;;29.60;80.00;;;;;;1865356;76;21195;-73
2022/10/12 04:05:58;;;;;;;11.80;8.45;;;29.60;79.50;;;;;;1853962;77;21116;-73
2022/10/12 04:08:29;;;;;;;12.85;7.97;;;29.70;79.60;;;;;;1853978;77;22095;-73
2022/10/12 04:11:00;;;;;;;14.83;8.83;;;29.70;80.20;;;;;;1871442;76;21609;-72
2022/10/12 04:13:31;;;;;;;13.53;8.30;;;29.80;79.80;;;;;;1868699;76;21148;-72
2022/10/12 04:16:04;;;;;;;14.87;8.63;;;29.90;80.40;;;;;;1851653;76;21223;-74
2022/10/12 04:18:35;;;;;;;15.18;9.20;;;29.90;80.20;;;;;;1853787;77;21208;-74
2022/10/12 04:21:09;;;;;;;13.30;7.95;;;30.00;79.70;;;;;;1854893;77;21526;-73
2022/10/12 04:23:40;;;;;;;15.28;8.73;;;30.10;79.70;;;;;;1852516;77;21539;-74
2022/10/12 04:26:12;;;;;;;12.37;8.60;;;30.10;79.10;;;;;;1867012;76;21110;-73
2022/10/12 04:28:43;;;;;;;10.98;7.53;;;30.20;78.60;;;;;;1886961;76;21082;-73
2022/10/12 04:31:14;;;;;;;13.75;8.40;;;30.20;78.40;;;;;;1878758;76;21074;-74
2022/10/12 04:33:45;;;;;;;17.40;8.60;;;30.30;78.70;;;;;;1867473;76;21580;-73
2022/10/12 04:36:16;;;;;;;11.78;8.15;;;30.20;78.60;;;;;;1865618;76;21620;-73
2022/10/12 04:38:47;;;;;;;10.88;8.25;;;30.30;78.30;;;;;;1865878;76;21098;-72
2022/10/12 04:41:19;;;;;;;12.00;8.50;;;30.20;78.30;;;;;;1886871;76;21640;-73
2022/10/12 04:43:51;;;;;;;13.88;8.38;;;30.20;78.60;;;;;;1873799;75;21517;-74
2022/10/12 04:46:22;;;;;;;11.85;7.95;;;30.30;77.90;;;;;;1881546;76;21569;-74
2022/10/12 04:48:53;;;;;;;11.93;8.20;;;30.40;77.80;;;;;;1885035;76;21074;-73
2022/10/12 04:51:24;;;;;;;13.30;7.60;;;30.50;77.40;;;;;;1869490;76;21200;-76
2022/10/12 04:53:55;;;;;;;10.53;7.55;;;30.60;76.70;;;;;;1870766;76;21199;-74
2022/10/12 04:56:26;;;;;;;12.65;7.97;;;30.60;76.50;;;;;;1874496;76;21651;-74
2022/10/12 04:58:57;;;;;;;15.28;8.43;;;30.70;76.60;;;;;;1875866;74;21066;-74
2022/10/12 05:01:27;;;;;;;12.93;7.55;;;30.60;77.10;;;;;;1834033;76;21223;-74
2022/10/12 05:03:59;;;;;;;9.10;6.97;;;30.60;76.80;;;;;;1861782;76;21115;-75
2022/10/12 05:06:30;;;;;;;11.97;7.83;;;30.60;76.50;;;;;;1863760;76;21667;-75
2022/10/12 05:09:01;;;;;;;10.38;7.42;;;30.60;76.20;;;;;;1856458;76;21161;-75
2022/10/12 05:11:32;;;;;;;11.43;8.70;;;30.70;76.60;;;;;;1858375;76;21171;-75
2022/10/12 05:14:02;;;;;;;12.18;7.70;;;30.80;76.50;;;;;;1816822;77;21094;-75
2022/10/12 05:16:33;;;;;;;10.53;7.60;;;30.70;76.50;;;;;;1852512;76;21693;-75
2022/10/12 05:19:04;;;;;;;17.30;7.97;;;30.80;76.50;;;;;;1863514;76;21107;-72
2022/10/12 05:21:35;;;;;;;10.72;7.17;;;30.70;75.80;;;;;;1860453;75;21069;-74
2022/10/12 05:24:06;;;;;;;11.00;7.17;;;30.80;75.20;;;;;;1855327;76;21248;-73
2022/10/12 05:26:38;;;;;;;10.28;7.42;;;30.80;75.20;;;;;;1792900;79;21607;-73
2022/10/12 05:29:10;;;;;;;9.05;6.65;;;30.80;74.20;;;;;;1848672;76;21138;-73
2022/10/12 05:31:41;;;;;;;9.18;6.78;;;30.90;73.70;;;;;;1832351;77;21164;-73
2022/10/12 05:34:11;;;;;;;11.05;6.55;;;30.90;73.10;;;;;;1768925;80;21638;-72
2022/10/12 05:36:42;;;;;;;13.53;6.85;;;30.90;72.40;;;;;;1869569;75;21195;-73
2022/10/12 05:39:13;;;;;;;9.75;6.97;;;30.90;72.70;;;;;;1884337;75;21167;-73
2022/10/12 05:41:43;;;;;;;11.15;6.87;;;31.00;72.70;;;;;;1868514;75;21120;-73
2022/10/12 05:44:14;;;;;;;10.28;6.62;;;31.00;72.70;;;;;;1882778;75;21132;-72
2022/10/12 05:46:47;;;;;;;14.03;7.35;;;31.00;72.70;;;;;;1853452;76;21172;-72
2022/10/12 05:49:18;;;;;;;9.45;6.37;;;31.10;73.30;;;;;;1877632;76;21089;-73
2022/10/12 05:51:49;;;;;;;7.97;6.10;;;31.00;74.00;;;;;;1855127;76;21502;-73
2022/10/12 05:54:20;;;;;;;9.00;6.53;;;31.00;73.00;;;;;;1854516;77;21173;-73
2022/10/12 05:56:51;;;;;;;9.15;6.33;;;31.10;73.30;;;;;;1869831;76;21323;-73
2022/10/12 05:59:21;;;;;;;12.78;5.83;;;31.10;71.80;;;;;;1887019;74;21538;-73
2022/10/12 06:01:52;;;;;;;9.58;6.37;;;31.20;71.10;;;;;;1865661;76;21643;-73
2022/10/12 06:04:23;;;;;;;7.78;5.25;;;31.20;70.30;;;;;;1852160;76;21290;-73
2022/10/12 06:06:54;;;;;;;10.10;6.40;;;31.20;69.80;;;;;;1827926;77;21156;-74
2022/10/12 06:09:25;;;;;;;9.63;5.80;;;31.20;70.90;;;;;;1842230;77;21107;-74
2022/10/12 06:11:56;;;;;;;10.05;6.08;;;31.20;71.60;;;;;;1853636;76;21632;-73
2022/10/12 06:14:27;;;;;;;10.75;6.25;;;31.10;70.80;;;;;;1841306;77;21833;-74
2022/10/12 06:16:58;;;;;;;8.78;5.95;;;31.20;70.60;;;;;;1847738;77;21089;-73
2022/10/12 06:19:29;;;;;;;10.90;6.00;;;31.20;70.90;;;;;;1823592;77;21667;-75
2022/10/12 06:22:00;;;;;;;7.97;5.45;;;31.20;70.60;;;;;;1848896;76;21154;-75
2022/10/12 06:24:31;;;;;;;8.85;5.67;;;31.20;70.70;;;;;;1853721;77;22035;-74
2022/10/12 06:27:02;;;;;;;8.30;5.70;;;31.20;70.80;;;;;;1856941;76;21613;-74
2022/10/12 06:29:34;;;;;;;10.30;6.40;;;31.20;70.80;;;;;;1854734;77;21545;-74
2022/10/12 06:32:05;;;;;;;8.03;6.30;;;31.20;70.30;;;;;;1852101;76;21719;-74
2022/10/12 06:34:37;;;;;;;10.55;6.58;;;31.20;70.30;;;;;;1848342;76;21162;-74
2022/10/12 06:37:08;;;;;;;10.85;6.40;;;31.20;71.40;;;;;;1852965;76;21233;-73
2022/10/12 06:39:40;;;;;;;10.32;6.35;;;31.20;72.10;;;;;;1844977;76;21086;-74
2022/10/12 06:42:10;;;;;;;11.12;6.22;;;31.20;69.90;;;;;;1847470;77;22393;-73
2022/10/12 06:44:41;;;;;;;11.05;6.10;;;31.10;69.90;;;;;;1839276;77;21189;-73
2022/10/12 06:47:13;;;;;;;7.97;6.08;;;31.10;71.20;;;;;;1862789;76;21129;-75
2022/10/12 06:49:43;;;;;;;11.18;5.50;;;31.10;71.00;;;;;;1858700;76;21176;-74
2022/10/12 06:52:14;;;;;;;8.43;5.75;;;31.10;71.40;;;;;;1857158;76;21215;-74
2022/10/12 06:54:45;;;;;;;8.98;5.78;;;31.10;71.20;;;;;;1861375;76;21553;-73
2022/10/12 06:57:16;;;;;;;11.85;5.97;;;31.10;70.90;;;;;;1853810;77;21501;-72
2022/10/12 06:59:47;;;;;;;11.78;7.78;;;31.00;72.00;;;;;;1848804;76;21197;-73
2022/10/12 07:02:18;;;;;;;8.93;6.28;;;31.10;71.90;;;;;;1851095;76;21193;-74
2022/10/12 07:04:51;;;;;;;10.72;6.20;;;31.10;71.90;;;;;;1850450;77;21125;-75
2022/10/12 07:07:22;;;;;;;9.23;6.10;;;31.00;71.50;;;;;;1849563;76;21156;-75
2022/10/12 07:09:53;;;;;;;9.75;5.55;;;31.00;71.20;;;;;;1852848;76;21161;-73
2022/10/12 07:12:24;;;;;;;10.15;6.00;;;30.90;71.30;;;;;;1850980;77;21134;-74
2022/10/12 07:14:55;;;;;;;9.78;5.53;;;30.90;71.70;;;;;;1851172;77;21062;-73
2022/10/12 07:17:28;;;;;;;8.13;5.62;;;30.90;71.60;;;;;;1851489;77;21688;-74
2022/10/12 07:19:59;;;;;;;7.72;5.37;;;30.90;70.70;;;;;;1847923;77;21140;-74
2022/10/12 07:22:30;;;;;;;7.37;5.03;;;30.90;71.20;;;;;;1852354;76;21624;-74
2022/10/12 07:25:03;;;;;;;9.55;5.40;;;30.90;70.50;;;;;;1848537;76;22289;-75
2022/10/12 07:27:33;;;;;;;7.90;5.08;;;30.90;70.90;;;;;;1850635;77;21188;-75
2022/10/12 07:30:05;;;;;;;6.85;5.03;;;30.90;70.40;;;;;;1853192;77;21162;-74
2022/10/12 07:32:36;;;;;;;7.05;5.42;;;31.00;70.40;;;;;;1847517;77;21137;-75
2022/10/12 07:35:08;;;;;;;8.53;5.58;;;31.00;70.70;;;;;;1851297;77;21138;-74
2022/10/12 07:37:39;;;;;;;7.97;5.33;;;31.00;70.50;;;;;;1851972;76;21148;-75
2022/10/12 07:40:10;;;;;;;7.25;5.00;;;31.00;70.30;;;;;;1851684;76;21610;-74
2022/10/12 07:42:41;;;;;;;8.15;4.90;;;31.00;70.20;;;;;;1855003;77;21164;-74
2022/10/12 07:45:13;;;;;;;13.25;5.42;;;31.00;68.80;;;;;;1852382;77;21125;-76
2022/10/12 07:47:45;;;;;;;5.83;4.75;;;31.00;69.10;;;;;;1859569;76;21203;-74
2022/10/12 07:50:16;;;;;;;9.25;5.33;;;30.90;69.60;;;;;;1859703;76;21223;-74
2022/10/12 07:52:47;;;;;;;7.92;4.60;;;30.90;70.20;;;;;;1852696;77;21164;-73
2022/10/12 07:55:18;;;;;;;7.58;4.87;;;30.90;70.20;;;;;;1859240;76;21661;-75
2022/10/12 07:57:49;;;;;;;7.60;4.80;;;30.90;69.70;;;;;;1857617;76;21193;-74
2022/10/12 08:00:21;;;;;;;7.80;5.12;;;30.90;70.50;;;;;;1858538;75;21648;-76
2022/10/12 08:02:51;;;;;;;8.05;5.33;;;30.90;70.40;;;;;;1860116;77;21107;-76
2022/10/12 08:05:23;;;;;;;9.83;4.85;;;30.90;70.00;;;;;;1832320;77;21776;-72
2022/10/12 08:07:54;;;;;;;6.83;4.50;;;30.90;69.90;;;;;;1854285;77;21340;-76
2022/10/12 08:10:26;;;;;;;10.60;5.35;;;30.90;69.90;;;;;;1866330;76;21895;-76
2022/10/12 08:12:59;;;;;;;13.58;5.50;;;30.90;69.60;;;;;;1866041;76;21203;-75
2022/10/12 08:15:36;;;;;;;8.78;4.97;;;30.90;70.60;;;;;;1825148;78;21514;-74
2022/10/12 08:18:14;;;;;;;7.00;5.08;;;30.90;70.20;;;;;;1826727;77;21109;-77
2022/10/12 08:20:47;;;;;;;9.33;4.80;;;30.90;69.50;;;;;;1847277;76;21244;-75
2022/10/12 08:23:17;;;;;;;8.85;5.03;;;30.90;70.10;;;;;;1784149;80;21156;-75
2022/10/12 08:25:51;;;;;;;9.23;5.10;;;30.90;70.00;;;;;;1823221;77;21148;-74
2022/10/12 08:28:23;;;;;;;8.88;4.90;;;30.90;70.40;;;;;;1823048;78;21121;-76
2022/10/12 08:30:55;;;;;;;5.92;4.97;;;30.80;70.00;;;;;;1820860;77;21682;-74
2022/10/12 08:33:34;;;;;;;8.53;4.97;;;30.80;70.40;;;;;;1822722;78;21169;-76
2022/10/12 08:36:12;;;;;;;;;;;30.70;70.50;;;;;;1850758;77;21601;-75
2022/10/12 08:38:47;;;;;;;8.95;4.97;;;30.80;71.50;;;;;;1838032;77;20191;-75
2022/10/12 08:41:25;;;;;;;7.37;5.05;;;30.70;71.10;;;;;;1814399;78;21175;-73
2022/10/12 08:43:56;;;;;;;8.85;4.85;;;30.70;71.90;;;;;;1806802;77;21191;-73
2022/10/12 08:46:29;;;;;;;9.48;5.12;;;30.70;70.60;;;;;;1820388;77;21150;-73
2022/10/12 08:49:03;;;;;;;6.20;4.75;;;30.70;70.60;;;;;;1817088;77;21106;-75
2022/10/12 08:51:37;;;;;;;5.90;4.53;;;30.70;71.50;;;;;;1808789;78;21133;-73
2022/10/12 08:54:12;;;;;;;7.85;4.42;;;30.70;69.90;;;;;;1823281;77;21145;-75
2022/10/12 08:56:43;;;;;;;6.83;4.03;;;30.70;69.70;;;;;;1817152;78;21127;-73
2022/10/12 08:59:17;;;;;;;7.87;4.55;;;30.70;70.10;;;;;;1758462;80;21233;-75
2022/10/12 09:01:48;;;;;;;6.80;4.20;;;30.70;69.90;;;;;;1800041;77;21165;-73
2022/10/12 09:04:21;;;;;;;5.70;4.20;;;30.70;70.00;;;;;;1782505;78;21900;-76
2022/10/12 09:06:51;;;;;;;5.55;3.80;;;30.70;70.10;;;;;;1821093;77;21098;-76
2022/10/12 09:09:37;;;;;;;6.72;4.58;;;30.70;70.20;;;;;;1832481;77;21168;-74
2022/10/12 09:12:12;;;;;;;6.70;4.20;;;30.60;70.30;;;;;;1817799;77;21102;-73
2022/10/12 09:14:43;;;;;;;6.65;5.00;;;30.60;70.40;;;;;;1821280;77;21077;-74
2022/10/12 09:17:16;;;;;;;9.60;5.00;;;30.60;70.70;;;;;;1820255;77;21183;-75
2022/10/12 09:19:48;;;;;;;7.60;4.70;;;30.50;71.20;;;;;;1818370;77;21137;-75
2022/10/12 09:22:20;;;;;;;7.80;4.67;;;30.50;71.00;;;;;;1823681;78;21584;-74
2022/10/12 09:24:52;;;;;;;7.62;4.17;;;30.40;71.00;;;;;;1820128;77;21230;-74
2022/10/12 09:27:22;;;;;;;8.23;5.40;;;30.40;71.60;;;;;;1816127;77;21154;-74
2022/10/12 09:29:57;;;;;;;9.50;4.92;;;30.40;71.90;;;;;;1787479;79;21099;-76
2022/10/12 09:32:30;;;;;;;7.35;4.67;;;30.30;72.00;;;;;;1821555;77;21655;-75
2022/10/12 09:35:01;;;;;;;8.85;5.50;;;30.30;71.90;;;;;;1822974;77;21141;-73
2022/10/12 09:37:35;;;;;;;9.05;5.30;;;30.30;72.70;;;;;;1814696;78;21093;-74
2022/10/12 09:40:07;;;;;;;7.95;4.60;;;30.30;72.80;;;;;;1822031;78;21124;-74
2022/10/12 09:42:38;;;;;;;9.53;5.15;;;30.20;72.50;;;;;;1820541;78;21226;-73
2022/10/12 09:45:11;;;;;;;9.05;5.40;;;30.20;72.70;;;;;;1820053;78;21238;-75
2022/10/12 09:47:43;;;;;;;9.43;5.55;;;30.20;73.00;;;;;;1821679;77;21214;-74
2022/10/12 09:50:15;;;;;;;10.58;4.97;;;30.20;73.20;;;;;;1822150;78;21121;-73
2022/10/12 09:52:51;;;;;;;11.22;5.60;;;30.10;72.90;;;;;;1824602;77;21207;-73
2022/10/12 09:55:24;;;;;;;7.70;5.25;;;30.10;73.40;;;;;;1820531;77;21685;-75
2022/10/12 09:57:58;;;;;;;6.80;4.70;;;30.10;73.50;;;;;;1823377;77;21656;-74
2022/10/12 10:00:29;;;;;;;8.05;5.33;;;30.00;73.40;;;;;;1820627;76;21674;-74
2022/10/12 10:03:01;;;;;;;6.25;5.00;;;30.00;73.70;;;;;;1792306;78;21096;-75
2022/10/12 10:05:33;;;;;;;7.97;5.25;;;30.00;74.00;;;;;;1758845;81;21178;-76
2022/10/12 10:08:06;;;;;;;9.05;5.58;;;29.90;74.20;;;;;;1830241;78;21108;-75
2022/10/12 10:10:56;;;;;;;7.85;4.97;;;30.00;74.30;;;;;;1833465;77;21241;-73
2022/10/12 10:13:30;;;;;;;9.70;5.37;;;29.90;74.40;;;;;;1820300;78;21094;-75
2022/10/12 10:16:04;;;;;;;9.13;5.08;;;29.80;74.70;;;;;;1819043;78;21541;-74
2022/10/12 10:18:37;;;;;;;13.50;5.42;;;29.80;74.90;;;;;;1818879;77;21161;-73
2022/10/12 10:21:10;;;;;;;6.92;5.25;;;29.80;75.10;;;;;;1821569;77;21278;-74
2022/10/12 10:23:45;;;;;;;7.87;5.10;;;29.80;75.20;;;;;;1819747;77;21170;-75
2022/10/12 10:26:18;;;;;;;7.65;4.92;;;29.80;75.30;;;;;;1820870;77;21164;-75
2022/10/12 10:28:55;;;;;;;7.28;4.90;;;29.80;75.40;;;;;;1822928;78;21604;-75
2022/10/12 10:31:28;;;;;;;;;;;29.70;75.10;;;;;;1830995;77;21117;-74
2022/10/12 10:34:01;;;;;;;9.08;6.03;;;29.70;75.50;;;;;;1822686;78;20215;-74
2022/10/12 10:36:35;;;;;;;;;;;29.70;75.70;;;;;;1835498;77;21276;-73
2022/10/12 10:39:08;;;;;;;7.67;6.03;;;29.60;75.80;;;;;;1824390;77;20231;-75
2022/10/12 10:41:41;;;;;;;8.23;5.78;;;29.60;76.00;;;;;;1828332;76;21138;-73
2022/10/12 10:44:15;;;;;;;8.83;5.60;;;29.60;76.40;;;;;;1829235;77;21097;-74
2022/10/12 10:46:47;;;;;;;7.53;5.60;;;29.60;76.50;;;;;;1779485;80;21649;-73
2022/10/12 10:49:22;;;;;;;8.68;5.67;;;29.60;77.70;;;;;;1835726;76;21620;-75
2022/10/12 10:51:56;;;;;;;11.08;5.85;;;29.50;76.70;;;;;;1833718;77;21553;-75
2022/10/12 10:54:30;;;;;;;8.43;6.28;;;29.50;76.90;;;;;;1831168;77;21121;-75
2022/10/12 10:57:03;;;;;;;12.00;6.03;;;29.50;77.10;;;;;;1835756;77;21159;-74
2022/10/12 10:59:36;;;;;;;8.90;6.05;;;29.50;77.20;;;;;;1834031;77;21652;-75
2022/10/12 11:02:15;;;;;;;10.40;5.70;;;29.50;77.30;;;;;;1850985;76;21148;-74
2022/10/12 11:04:49;;;;;;;12.37;7.20;;;29.40;77.40;;;;;;1844639;76;21302;-74
2022/10/12 11:07:22;;;;;;;12.58;6.25;;;29.40;77.70;;;;;;1836974;76;21152;-76
2022/10/12 11:09:56;;;;;;;12.78;6.60;;;29.40;77.90;;;;;;1840444;78;21122;-76
2022/10/12 11:12:29;;;;;;;12.85;6.85;;;29.40;78.30;;;;;;1839072;76;21147;-74
2022/10/12 11:15:02;;;;;;;11.25;6.65;;;29.40;78.40;;;;;;1844996;76;21782;-73
2022/10/12 11:17:36;;;;;;;9.43;6.45;;;29.30;78.60;;;;;;1846548;77;21136;-73
2022/10/12 11:20:09;;;;;;;10.98;7.15;;;29.30;78.90;;;;;;1825639;78;21226;-73
2022/10/12 11:22:51;;;;;;;11.73;7.33;;;29.30;79.20;;;;;;1838272;76;21242;-73
2022/10/12 11:25:25;;;;;;;10.40;6.80;;;29.30;79.40;;;;;;1819339;77;21109;-73
2022/10/12 11:27:55;;;;;;;15.13;7.25;;;29.30;79.70;;;;;;1828476;78;21144;-74
2022/10/12 11:30:29;;;;;;;11.93;7.75;;;29.30;79.90;;;;;;1778423;80;21574;-79
2022/10/12 11:33:03;;;;;;;9.63;7.40;;;29.30;80.20;;;;;;1835267;78;21172;-79
2022/10/12 11:35:37;;;;;;;12.35;8.70;;;29.30;80.40;;;;;;1835599;77;21167;-78
2022/10/12 11:38:11;;;;;;;13.60;8.38;;;29.30;80.60;;;;;;1799467;78;21108;-77
2022/10/12 11:40:46;;;;;;;12.28;8.25;;;29.20;80.70;;;;;;1831361;77;21242;-78
2022/10/12 11:43:21;;;;;;;18.37;10.50;;;29.20;80.90;;;;;;1806678;78;21156;-79
2022/10/12 11:45:57;;;;;;;20.48;12.18;;;29.20;81.40;;;;;;1825739;78;22081;-78
2022/10/12 11:48:30;;;;;;;20.32;11.53;;;29.20;82.00;;;;;;1841912;77;21591;-79
2022/10/12 11:51:02;;;;;;;16.77;11.20;;;29.20;81.80;;;;;;1868590;77;21060;-78
2022/10/12 11:53:35;;;;;;;14.13;10.23;;;29.10;82.20;;;;;;1859452;77;21142;-78
2022/10/12 11:56:09;;;;;;;17.42;10.48;;;29.10;82.10;;;;;;1831451;78;21106;-79
2022/10/12 11:58:46;;;;;;;13.45;8.85;;;29.10;82.30;;;;;;1832155;77;21521;-78
2022/10/12 12:01:21;;;;;;;22.42;9.05;;;29.10;82.30;;;;;;1854509;77;21832;-77
2022/10/12 12:03:54;;;;;;;15.75;9.30;;;29.10;82.30;;;;;;1854799;76;21685;-78
2022/10/12 12:06:27;;;;;;;13.45;7.70;;;29.10;82.20;;;;;;1852069;76;21616;-79
2022/10/12 12:09:00;;;;;;;11.38;7.62;;;29.10;81.20;;;;;;1828641;77;21587;-79
2022/10/12 12:11:33;;;;;;;11.55;6.37;;;29.00;79.80;;;;;;1847146;77;21192;-77
2022/10/12 12:14:06;;;;;;;10.18;6.78;;;29.10;79.80;;;;;;1841380;77;21161;-79
2022/10/12 12:16:39;;;;;;;11.50;7.05;;;29.10;79.90;;;;;;1834401;77;21184;-77
2022/10/12 12:19:12;;;;;;;11.55;6.92;;;29.00;79.70;;;;;;1822683;77;21242;-78
2022/10/12 12:21:46;;;;;;;12.43;6.72;;;29.00;79.60;;;;;;1819971;78;21644;-79
2022/10/12 12:24:18;;;;;;;9.73;6.62;;;29.00;79.00;;;;;;1822981;77;21743;-79
2022/10/12 12:26:49;;;;;;;9.75;6.65;;;29.00;79.10;;;;;;1851647;77;21234;-78
2022/10/12 12:29:22;;;;;;;12.35;7.25;;;29.00;79.20;;;;;;1817750;77;21086;-79
2022/10/12 12:31:57;;;;;;;11.53;6.42;;;29.00;80.30;;;;;;1828711;75;21601;-81
2022/10/12 12:34:29;;;;;;;10.20;6.58;;;29.00;79.40;;;;;;1825081;77;21165;-80
2022/10/12 12:37:02;;;;;;;12.53;7.22;;;29.00;79.50;;;;;;1836648;77;21153;-79
2022/10/12 12:39:35;;;;;;;12.33;7.45;;;29.00;80.80;;;;;;1852299;76;21083;-78
2022/10/12 12:42:08;;;;;;;9.65;6.85;;;29.00;80.00;;;;;;1828750;77;21215;-81
2022/10/12 12:44:41;;;;;;;12.10;7.90;;;29.00;80.10;;;;;;1838125;77;21087;-77
2022/10/12 12:47:11;;;;;;;13.48;8.53;;;29.00;80.10;;;;;;1826539;77;21164;-78
2022/10/12 12:49:46;;;;;;;13.13;7.58;;;29.00;80.20;;;;;;1764417;78;21096;-78
2022/10/12 12:52:18;;;;;;;13.70;8.10;;;29.00;80.50;;;;;;1834433;77;21675;-78
2022/10/12 12:54:52;;;;;;;13.78;8.48;;;28.90;80.40;;;;;;1851292;77;21570;-78
2022/10/12 12:57:26;;;;;;;15.32;9.18;;;28.90;80.60;;;;;;1778812;79;21562;-78
2022/10/12 12:59:58;;;;;;;14.73;8.98;;;28.90;80.90;;;;;;1791683;78;21142;-78
2022/10/12 13:02:33;;;;;;;14.13;9.03;;;28.90;81.00;;;;;;1818190;76;21652;-78
2022/10/12 13:05:06;;;;;;;14.35;9.35;;;28.90;81.20;;;;;;1839080;77;21286;-79